createdAt,value
2019-01-26T00:04:50.531Z,99576.86
2019-01-26T00:09:46.607Z,99573.61
2019-01-26T00:14:43.105Z,99570.98
2019-01-26T00:19:39.185Z,99569.19
2019-01-26T00:24:35.062Z,99577.45
2019-01-26T00:29:31.043Z,99567.92
2019-01-26T00:34:26.973Z,99564.92
2019-01-26T00:39:22.875Z,99562.09
2019-01-26T00:44:21.044Z,99563.86
2019-01-26T00:49:16.980Z,99554.14
2019-01-26T00:54:12.988Z,99552.52
2019-01-26T00:59:08.974Z,99562.23
2019-01-26T01:04:04.995Z,99552.28
2019-01-26T01:09:00.936Z,99544.11
2019-01-26T01:13:56.868Z,99543.16
2019-01-26T01:18:53.036Z,99540.92
2019-01-26T01:23:49.006Z,99537.08
2019-01-26T01:28:44.907Z,99531.14
2019-01-26T01:33:40.808Z,99519.38
2019-01-26T01:38:36.738Z,99526.66
2019-01-26T01:43:32.656Z,99521.09
2019-01-26T01:48:28.578Z,99522.70
2019-01-26T01:53:24.491Z,99517.97
2019-01-26T01:58:20.432Z,99513.73
2019-01-26T02:03:16.341Z,99509.73
2019-01-26T02:08:12.295Z,99507.59
2019-01-26T02:13:08.194Z,99505.77
2019-01-26T02:18:04.440Z,99507.36
2019-01-26T02:23:00.343Z,99495.34
2019-01-26T02:27:56.261Z,99501.16
2019-01-26T02:32:52.160Z,99490.76
2019-01-26T02:37:48.068Z,99493.35
2019-01-26T02:42:43.963Z,99482.33
2019-01-26T02:47:40.096Z,99484.92
2019-01-26T02:52:36.101Z,99477.28
2019-01-26T02:57:32.108Z,99483.95
2019-01-26T03:02:28.022Z,99471.77
2019-01-26T03:07:24.043Z,99466.05
2019-01-26T03:12:19.992Z,99461.06
2019-01-26T03:17:16.004Z,99454.40
2019-01-26T03:22:11.916Z,99449.88
2019-01-26T03:27:07.817Z,99451.80
2019-01-26T03:32:03.852Z,99456.34
2019-01-26T03:36:59.756Z,99453.28
2019-01-26T03:41:55.695Z,99454.00
2019-01-26T03:46:51.625Z,99444.44
2019-01-26T03:51:47.515Z,99432.77
2019-01-26T03:56:43.413Z,99430.80
2019-01-26T04:01:39.418Z,99426.17
2019-01-26T04:06:35.322Z,99429.20
2019-01-26T04:11:31.262Z,99423.69
2019-01-26T04:16:27.285Z,99416.53
2019-01-26T04:21:23.308Z,99408.91
2019-01-26T04:26:19.485Z,99423.25
2019-01-26T04:31:15.491Z,99413.73
2019-01-26T04:36:11.426Z,99409.66
2019-01-26T04:41:07.331Z,99404.64
2019-01-26T04:46:03.703Z,99410.28
2019-01-26T04:50:59.613Z,99417.59
2019-01-26T04:55:55.590Z,99399.52
2019-01-26T05:00:51.497Z,99394.09
2019-01-26T05:05:47.395Z,99389.17
2019-01-26T05:10:43.345Z,99375.45
2019-01-26T05:15:39.345Z,99378.19
2019-01-26T05:20:35.260Z,99374.44
2019-01-26T05:25:31.730Z,99346.08
2019-01-26T05:30:27.797Z,99346.08
2019-01-26T05:35:23.810Z,99343.14
2019-01-26T05:40:19.834Z,99351.47
2019-01-26T05:45:18.046Z,99338.17
2019-01-26T05:50:21.807Z,99344.11
2019-01-26T05:55:17.954Z,99344.08
2019-01-26T06:00:17.762Z,99335.03
2019-01-26T06:05:14.388Z,99331.56
2019-01-26T06:10:10.434Z,99330.37
2019-01-26T06:15:09.239Z,99319.87
2019-01-26T06:20:08.687Z,99317.47
2019-01-26T06:25:07.942Z,99307.91
2019-01-26T06:30:07.684Z,99305.09
2019-01-26T06:35:05.201Z,99301.42
2019-01-26T06:40:01.321Z,99290.63
2019-01-26T06:44:57.995Z,99291.92
2019-01-26T06:49:53.862Z,99289.72
2019-01-26T06:54:49.954Z,99290.06
2019-01-26T06:59:45.892Z,99291.33
2019-01-26T07:04:43.701Z,99289.94
2019-01-26T07:09:39.604Z,99288.03
2019-01-26T07:14:42.628Z,99302.02
2019-01-26T07:19:38.571Z,99295.80
2019-01-26T07:24:34.524Z,99300.22
2019-01-26T07:29:30.527Z,99301.85
2019-01-26T07:34:26.536Z,99309.28
2019-01-26T07:39:22.544Z,99305.05
2019-01-26T07:44:22.931Z,99309.92
2019-01-26T07:49:18.840Z,99298.95
2019-01-26T07:54:14.765Z,99297.04
2019-01-26T07:59:10.704Z,99305.60
2019-01-26T08:04:06.623Z,99302.07
2019-01-26T08:09:05.551Z,99302.38
2019-01-26T08:14:01.670Z,99301.39
2019-01-26T08:18:57.602Z,99312.83
2019-01-26T08:23:53.516Z,99309.42
2019-01-26T08:28:49.432Z,99312.73
2019-01-26T08:33:45.474Z,99317.95
2019-01-26T08:38:41.383Z,99317.27
2019-01-26T08:43:37.480Z,99320.89
2019-01-26T08:48:33.492Z,99316.87
2019-01-26T08:53:30.446Z,99334.16
2019-01-26T08:58:26.519Z,99313.95
2019-01-26T09:03:24.336Z,99323.30
2019-01-26T09:08:20.288Z,99324.92
2019-01-26T09:13:16.307Z,99323.89
2019-01-26T09:18:12.227Z,99328.12
2019-01-26T09:23:08.284Z,99325.20
2019-01-26T09:28:04.714Z,99329.73
2019-01-26T09:33:00.675Z,99328.34
2019-01-26T09:37:56.709Z,99326.72
2019-01-26T09:42:52.747Z,99333.77
2019-01-26T09:47:48.789Z,99332.56
2019-01-26T09:52:44.765Z,99336.66
2019-01-26T09:57:40.873Z,99340.00
2019-01-26T10:02:36.796Z,99336.66
2019-01-26T10:07:32.755Z,99332.06
2019-01-26T10:12:28.666Z,99335.56
2019-01-26T10:17:24.623Z,99326.73
2019-01-26T10:22:20.586Z,99333.06
2019-01-26T10:27:16.593Z,99333.95
2019-01-26T10:32:12.590Z,99333.16
2019-01-26T10:37:10.495Z,99328.92
2019-01-26T10:42:08.575Z,99325.94
2019-01-26T10:47:04.986Z,99318.10
2019-01-26T10:52:00.902Z,99311.64
2019-01-26T10:56:57.598Z,99307.14
2019-01-26T11:01:53.615Z,99311.64
2019-01-26T11:06:49.511Z,99317.69
2019-01-26T11:11:45.418Z,99306.52
2019-01-26T11:16:41.336Z,99292.98
2019-01-26T11:21:37.356Z,99294.38
2019-01-26T11:26:33.615Z,99283.21
2019-01-26T11:31:29.942Z,99290.36
2019-01-26T11:36:25.955Z,99287.75
2019-01-26T11:41:24.740Z,99277.89
2019-01-26T11:46:23.446Z,99273.69
2019-01-26T11:51:21.484Z,99275.89
2019-01-26T11:56:31.258Z,99262.21
2019-01-26T12:01:35.358Z,99261.00
2019-01-26T12:06:33.270Z,99257.09
2019-01-26T12:11:29.278Z,99257.61
2019-01-26T12:16:27.111Z,99252.80
2019-01-26T12:21:23.032Z,99245.64
2019-01-26T12:26:19.419Z,99250.28
2019-01-26T12:31:15.493Z,99245.13
2019-01-26T12:36:11.552Z,99249.36
2019-01-26T12:41:07.485Z,99245.64
2019-01-26T12:46:03.489Z,99231.69
2019-01-26T12:50:59.387Z,99238.32
2019-01-26T12:55:55.709Z,99235.40
2019-01-26T13:00:51.770Z,99233.78
2019-01-26T13:05:48.194Z,99230.97
2019-01-26T13:10:47.804Z,99229.17
2019-01-26T13:15:44.329Z,99221.44
2019-01-26T13:20:40.459Z,99221.34
2019-01-26T13:25:36.477Z,99216.70
2019-01-26T13:30:32.378Z,99209.90
2019-01-26T13:35:28.361Z,99205.36
2019-01-26T13:40:26.470Z,99198.14
2019-01-26T13:45:22.371Z,99192.81
2019-01-26T13:50:18.414Z,99182.68
2019-01-26T13:55:16.637Z,99188.59
2019-01-26T14:00:33.626Z,99185.19
2019-01-26T14:05:29.637Z,99184.47
2019-01-26T14:10:25.570Z,99172.44
2019-01-26T14:15:21.875Z,99178.66
2019-01-26T14:20:21.093Z,99168.21
2019-01-26T14:25:17.125Z,99162.58
2019-01-26T14:30:19.627Z,99162.16
2019-01-26T14:35:15.530Z,99158.33
2019-01-26T14:40:13.796Z,99153.31
2019-01-26T14:45:12.552Z,99154.11
2019-01-26T14:50:11.760Z,99145.69
2019-01-26T14:55:10.977Z,99143.08
2019-01-26T15:00:19.256Z,99139.37
2019-01-26T15:05:15.256Z,99134.53
2019-01-26T15:10:11.593Z,99128.92
2019-01-26T15:15:13.490Z,99124.59
2019-01-26T15:20:12.902Z,99119.78
2019-01-26T15:25:08.912Z,99119.17
2019-01-26T15:30:08.628Z,99111.11
2019-01-26T15:35:05.194Z,99100.20
2019-01-26T15:40:01.222Z,99095.25
2019-01-26T15:44:57.128Z,99093.56
2019-01-26T15:49:53.023Z,99084.70
2019-01-26T15:54:48.934Z,99083.22
2019-01-26T15:59:44.836Z,99078.60
2019-01-26T16:04:40.729Z,99063.63
2019-01-26T16:09:36.643Z,99064.02
2019-01-26T16:14:33.463Z,99053.80
2019-01-26T16:19:29.474Z,99049.16
2019-01-26T16:24:25.481Z,99044.64
2019-01-26T16:29:21.515Z,99027.06
2019-01-26T16:34:17.448Z,99034.41
2019-01-26T16:39:13.384Z,99028.25
2019-01-26T16:44:15.004Z,99026.95
2019-01-26T16:49:12.378Z,99017.71
2019-01-26T16:54:08.398Z,99010.09
2019-01-26T16:59:04.313Z,99002.04
2019-01-26T17:04:00.306Z,98998.38
2019-01-26T17:08:56.781Z,98989.09
2019-01-26T17:13:52.734Z,98976.50
2019-01-26T17:18:48.654Z,98974.70
2019-01-26T17:23:44.656Z,98966.88
2019-01-26T17:28:40.632Z,98956.42
2019-01-26T17:33:36.663Z,98948.41
2019-01-26T17:38:32.694Z,98945.45
2019-01-26T17:43:28.617Z,98946.34
2019-01-26T17:48:29.190Z,98946.73
2019-01-26T17:53:25.307Z,98908.83
2019-01-26T17:58:21.432Z,98901.70
2019-01-26T18:03:17.383Z,98897.66
2019-01-26T18:08:13.326Z,98887.22
2019-01-26T18:13:09.488Z,98883.00
2019-01-26T18:18:05.617Z,98867.76
2019-01-26T18:23:02.269Z,98853.95
2019-01-26T18:27:58.420Z,98853.03
2019-01-26T18:32:54.774Z,98846.11
2019-01-26T18:37:50.696Z,98838.59
2019-01-26T18:42:46.610Z,98831.88
2019-01-26T18:47:42.551Z,98829.81
2019-01-26T18:52:38.461Z,98822.56
2019-01-26T18:57:34.448Z,98808.81
2019-01-26T19:02:30.371Z,98799.55
2019-01-26T19:07:26.328Z,98797.89
2019-01-26T19:12:22.232Z,98782.71
2019-01-26T19:17:18.445Z,98781.14
2019-01-26T19:22:14.397Z,98767.63
2019-01-26T19:27:10.387Z,98763.71
2019-01-26T19:32:06.317Z,98760.87
2019-01-26T19:37:09.118Z,98749.78
2019-01-26T19:42:00.101Z,98738.34
2019-01-26T19:46:56.093Z,98735.55
2019-01-26T19:51:52.135Z,98734.59
2019-01-26T19:56:48.044Z,98727.98
2019-01-26T20:01:44.003Z,98726.20
2019-01-26T20:06:40.048Z,98711.19
2019-01-26T20:11:36.161Z,98704.36
2019-01-26T20:16:36.397Z,98696.30
2019-01-26T20:21:30.017Z,98694.05
2019-01-26T20:26:25.942Z,98680.92
2019-01-26T20:31:21.988Z,98672.17
2019-01-26T20:36:18.026Z,98668.13
2019-01-26T20:41:14.026Z,98662.05
2019-01-26T20:46:10.011Z,98644.22
2019-01-26T20:51:05.912Z,98638.66
2019-01-26T20:56:01.817Z,98630.44
2019-01-26T21:00:57.719Z,98618.83
2019-01-26T21:05:53.661Z,98611.41
2019-01-26T21:10:51.783Z,98600.63
2019-01-26T21:15:47.791Z,98588.70
2019-01-26T21:20:43.739Z,98570.54
2019-01-26T21:25:39.748Z,98562.72
2019-01-26T21:30:35.807Z,98547.55
2019-01-26T21:35:31.774Z,98536.94
2019-01-26T21:40:29.194Z,98527.34
2019-01-26T21:45:26.188Z,98521.83
2019-01-26T21:50:27.493Z,98521.56
2019-01-26T21:55:23.586Z,98514.64
2019-01-26T22:00:21.775Z,98505.05
2019-01-26T22:05:17.827Z,98495.92
2019-01-26T22:10:16.455Z,98496.66
2019-01-26T22:15:15.277Z,98484.98
2019-01-26T22:20:14.384Z,98471.16
2019-01-26T22:25:12.100Z,98467.98
2019-01-26T22:30:22.199Z,98450.43
2019-01-26T22:35:18.216Z,98443.55
2019-01-26T22:40:29.506Z,98439.64
2019-01-26T22:45:25.705Z,98428.72
2019-01-26T22:50:23.810Z,98423.64
2019-01-26T22:55:22.224Z,98398.59
2019-01-26T23:00:50.792Z,98399.95
2019-01-26T23:06:02.458Z,98386.42
2019-01-26T23:11:04.789Z,98375.25
2019-01-26T23:16:13.167Z,98361.06
2019-01-26T23:21:15.928Z,98351.55
2019-01-26T23:26:18.423Z,98334.41
2019-01-26T23:31:15.643Z,98320.55
2019-01-26T23:36:12.551Z,98313.97
2019-01-26T23:41:08.458Z,98299.77
2019-01-26T23:46:04.581Z,98295.00
2019-01-26T23:51:00.487Z,98274.99
2019-01-26T23:55:56.512Z,98268.77
